createdAt,value
2022-10-12T00:03:38.501Z,101375.63
2022-10-12T00:08:42.780Z,101368.72
2022-10-12T00:13:45.694Z,101367.19
2022-10-12T00:18:51.155Z,101370.06
2022-10-12T00:23:57.319Z,101368.34
2022-10-12T00:29:01.277Z,101371.19
2022-10-12T00:34:04.303Z,101372.34
2022-10-12T00:39:09.213Z,101370.44
2022-10-12T00:44:40.572Z,101370.72
2022-10-12T00:49:43.555Z,101369.06
2022-10-12T00:54:48.269Z,101371.75
2022-10-12T00:59:52.242Z,101378.25
2022-10-12T01:04:54.871Z,101373.13
2022-10-12T01:09:58.891Z,101367.97
2022-10-12T01:15:01.632Z,101371.72
2022-10-12T01:20:45.863Z,101371.88
2022-10-12T01:25:58.165Z,101366.78
2022-10-12T01:31:03.794Z,101361.72
2022-10-12T01:36:08.063Z,101367.16
2022-10-12T01:41:13.127Z,101365.31
2022-10-12T01:46:40.269Z,101367.44
2022-10-12T01:52:12.417Z,101359.38
2022-10-12T01:57:18.749Z,101353.31
2022-10-12T02:02:25.739Z,101338.28
2022-10-12T02:07:32.601Z,101353.72
2022-10-12T02:12:35.251Z,101344.91
2022-10-12T02:17:39.645Z,101357.25
2022-10-12T02:22:42.788Z,101361.03
2022-10-12T02:27:47.798Z,101363.81
2022-10-12T02:32:54.848Z,101356.75
2022-10-12T02:37:59.693Z,101348.03
2022-10-12T02:43:10.281Z,101343.53
2022-10-12T02:48:16.769Z,101343.63
2022-10-12T02:53:19.552Z,101339.97
2022-10-12T02:58:22.290Z,101326.78
2022-10-12T03:03:26.287Z,101332.19
2022-10-12T03:08:28.897Z,101336.53
2022-10-12T03:13:31.603Z,101341.03
2022-10-12T03:18:35.580Z,101343.78
2022-10-12T03:23:38.464Z,101341.91
2022-10-12T03:28:41.227Z,101343.78
2022-10-12T03:33:45.478Z,101335.84
2022-10-12T03:38:48.182Z,101329.59
2022-10-12T03:43:50.819Z,101319.66
2022-10-12T03:48:54.890Z,101323.28
2022-10-12T03:53:57.537Z,101309.22
2022-10-12T03:59:00.268Z,101315.53
2022-10-12T04:04:04.557Z,101317.44
2022-10-12T04:09:07.407Z,101325.41
2022-10-12T04:14:10.150Z,101328.94
2022-10-12T04:19:14.507Z,101320.03
2022-10-12T04:24:17.326Z,101327.38
2022-10-12T04:29:19.997Z,101320.19
2022-10-12T04:34:24.026Z,101317.69
2022-10-12T04:39:26.919Z,101325.06
2022-10-12T04:44:32.150Z,101324.88
2022-10-12T04:49:36.709Z,101327.75
2022-10-12T04:54:39.551Z,101324.19
2022-10-12T04:59:42.266Z,101327.91
2022-10-12T05:04:46.292Z,101323.41
2022-10-12T05:09:49.190Z,101326.19
2022-10-12T05:14:51.796Z,101328.09
2022-10-12T05:19:55.849Z,101320.25
2022-10-12T05:24:58.596Z,101327.41
2022-10-12T05:30:01.257Z,101325.84
2022-10-12T05:35:05.930Z,101320.50
2022-10-12T05:40:09.398Z,101321.59
2022-10-12T05:45:12.295Z,101319.72
2022-10-12T05:50:16.712Z,101324.28
2022-10-12T05:55:19.399Z,101323.50
2022-10-12T06:00:22.053Z,101325.25
2022-10-12T06:05:26.140Z,101331.69
2022-10-12T06:10:30.161Z,101329.88
2022-10-12T06:15:32.903Z,101337.88
2022-10-12T06:20:37.006Z,101329.63
2022-10-12T06:25:39.717Z,101335.09
2022-10-12T06:30:42.439Z,101336.03
2022-10-12T06:35:46.699Z,101344.84
2022-10-12T06:40:49.385Z,101342.41
2022-10-12T06:45:52.080Z,101342.50
2022-10-12T06:50:56.108Z,101340.78
2022-10-12T06:55:58.787Z,101351.31
2022-10-12T07:01:03.732Z,101342.41
2022-10-12T07:06:09.597Z,101345.00
2022-10-12T07:11:13.446Z,101342.25
2022-10-12T07:16:16.640Z,101345.81
2022-10-12T07:21:20.670Z,101342.16
2022-10-12T07:26:23.319Z,101346.59
2022-10-12T07:31:26.132Z,101343.13
2022-10-12T07:36:47.428Z,101347.38
2022-10-12T07:41:53.066Z,101345.72
2022-10-12T07:46:55.723Z,101347.47
2022-10-12T07:51:59.921Z,101358.81
2022-10-12T07:57:02.589Z,101355.09
2022-10-12T08:02:05.385Z,101352.22
2022-10-12T08:07:09.475Z,101350.31
2022-10-12T08:12:12.135Z,101353.78
2022-10-12T08:17:14.844Z,101351.00
2022-10-12T08:22:18.834Z,101347.47
2022-10-12T08:27:21.526Z,101341.91
2022-10-12T08:32:25.430Z,101340.09
2022-10-12T08:37:29.880Z,101336.38
2022-10-12T08:42:39.026Z,101327.47
2022-10-12T08:47:42.827Z,101324.97
2022-10-12T08:52:50.384Z,101327.63
2022-10-12T08:57:53.002Z,101321.28
2022-10-12T09:03:02.450Z,101315.31
2022-10-12T09:08:07.956Z,101315.84
2022-10-12T09:13:15.846Z,101305.59
2022-10-12T09:18:21.245Z,101296.03
2022-10-12T09:23:26.558Z,101303.47
2022-10-12T09:28:32.207Z,101296.19
2022-10-12T09:33:37.953Z,101296.56
2022-10-12T09:38:42.098Z,101298.44
2022-10-12T09:43:44.793Z,101289.03
2022-10-12T09:48:59.762Z,101287.91
2022-10-12T09:54:04.219Z,101283.03
2022-10-12T09:59:08.340Z,101285.56
2022-10-12T10:04:13.595Z,101276.31
2022-10-12T10:09:30.235Z,101270.69
2022-10-12T10:14:32.860Z,101267.75
2022-10-12T10:19:35.591Z,101272.00
2022-10-12T10:24:39.579Z,101271.81
2022-10-12T10:29:43.692Z,101261.75
2022-10-12T10:34:46.399Z,101268.03
2022-10-12T10:39:51.276Z,101266.88
2022-10-12T10:44:54.139Z,101258.81
2022-10-12T10:49:59.126Z,101260.28
2022-10-12T10:55:19.397Z,101261.81
2022-10-12T11:00:40.202Z,101254.28
2022-10-12T11:05:45.070Z,101252.38
2022-10-12T11:10:50.502Z,101239.72
2022-10-12T11:15:55.070Z,101240.50
2022-10-12T11:20:59.375Z,101236.13
2022-10-12T11:26:09.174Z,101232.22
2022-10-12T11:31:17.068Z,101229.31
2022-10-12T11:36:22.578Z,101226.13
2022-10-12T11:41:35.469Z,101212.94
2022-10-12T11:46:41.929Z,101207.47
2022-10-12T11:51:46.967Z,101198.97
2022-10-12T11:56:52.449Z,101192.16
2022-10-12T12:02:01.403Z,101187.97
2022-10-12T12:07:04.308Z,101183.19
2022-10-12T12:12:29.039Z,101186.31
2022-10-12T12:17:32.495Z,101180.56
2022-10-12T12:22:49.659Z,101166.63
2022-10-12T12:27:54.238Z,101161.63
2022-10-12T12:32:57.625Z,101161.97
2022-10-12T12:38:06.630Z,101158.03
2022-10-12T12:43:54.128Z,101143.88
2022-10-12T12:48:59.861Z,101141.19
2022-10-12T12:54:04.005Z,101130.91
2022-10-12T12:59:19.078Z,101133.19
2022-10-12T13:04:33.374Z,101127.13
2022-10-12T13:10:08.442Z,101122.72
2022-10-12T13:15:22.707Z,101112.53
2022-10-12T13:20:28.801Z,101112.31
2022-10-12T13:25:33.859Z,101101.97
2022-10-12T13:30:37.316Z,101100.47
2022-10-12T13:35:42.389Z,101100.78
2022-10-12T13:40:45.756Z,101091.34
2022-10-12T13:45:48.482Z,101087.22
2022-10-12T13:50:53.920Z,101080.03
2022-10-12T13:56:00.120Z,101081.22
2022-10-12T14:01:02.916Z,101078.34
2022-10-12T14:06:07.310Z,101066.41
2022-10-12T14:11:10.059Z,101065.00
2022-10-12T14:16:12.753Z,101059.28
2022-10-12T14:21:19.683Z,101052.75
2022-10-12T14:26:30.387Z,101061.03
2022-10-12T14:31:52.306Z,101048.78
2022-10-12T14:37:02.783Z,101050.69
2022-10-12T14:42:05.663Z,101047.06
2022-10-12T14:47:13.623Z,101054.03
2022-10-12T14:52:20.311Z,101049.09
2022-10-12T14:57:23.456Z,101041.69
2022-10-12T15:02:27.100Z,101044.25
2022-10-12T15:07:32.701Z,101034.69
2022-10-12T15:12:35.558Z,101041.97
2022-10-12T15:17:38.204Z,101041.84
2022-10-12T15:22:42.313Z,101036.38
2022-10-12T15:27:44.939Z,101027.13
2022-10-12T15:32:48.534Z,101028.44
2022-10-12T15:37:52.683Z,101033.19
2022-10-12T15:42:55.430Z,101032.88
2022-10-12T15:47:58.129Z,101022.66
2022-10-12T15:53:02.559Z,101014.91
2022-10-12T15:58:05.244Z,101015.13
2022-10-12T16:03:08.571Z,101018.34
2022-10-12T16:08:12.756Z,101023.38
2022-10-12T16:13:15.500Z,101021.75
2022-10-12T16:18:18.141Z,101025.59
2022-10-12T16:23:23.464Z,101021.22
2022-10-12T16:28:26.307Z,101017.38
2022-10-12T16:33:29.043Z,101014.06
2022-10-12T16:38:33.260Z,101015.25
2022-10-12T16:43:36.447Z,101020.94
2022-10-12T16:48:39.342Z,101027.50
2022-10-12T16:53:43.676Z,101023.50
2022-10-12T16:58:46.292Z,101021.47
2022-10-12T17:03:48.968Z,101027.91
2022-10-12T17:08:53.216Z,101018.31
2022-10-12T17:13:56.234Z,101017.13
2022-10-12T17:18:59.778Z,101016.50
2022-10-12T17:24:04.207Z,101019.91
2022-10-12T17:29:07.028Z,101013.44
2022-10-12T17:34:09.921Z,101017.00
2022-10-12T17:39:13.987Z,101013.44
2022-10-12T17:44:16.702Z,101015.16
2022-10-12T17:49:24.508Z,101007.22
2022-10-12T17:54:28.979Z,100999.88
2022-10-12T17:59:31.604Z,100995.28
2022-10-12T18:04:34.332Z,100999.56
2022-10-12T18:09:38.519Z,100996.75
2022-10-12T18:14:41.215Z,100994.38
2022-10-12T18:19:45.767Z,100990.84
2022-10-12T18:24:49.867Z,100996.22
2022-10-12T18:29:52.471Z,100998.81
2022-10-12T18:34:55.174Z,100991.94
2022-10-12T18:39:59.208Z,100992.06
2022-10-12T18:45:02.116Z,100987.53
2022-10-12T18:50:05.259Z,100993.66
2022-10-12T18:55:10.130Z,100989.97
2022-10-12T19:00:13.289Z,100987.28
2022-10-12T19:05:16.260Z,100980.84
2022-10-12T19:10:20.258Z,100984.53
2022-10-12T19:15:23.164Z,100986.44
2022-10-12T19:20:25.910Z,100989.00
2022-10-12T19:25:29.921Z,100988.06
2022-10-12T19:30:32.592Z,100980.84
2022-10-12T19:35:37.960Z,100983.44
2022-10-12T19:40:41.979Z,100979.03
2022-10-12T19:45:44.667Z,100972.00
2022-10-12T19:50:47.502Z,100971.81
2022-10-12T19:55:51.455Z,100968.88
2022-10-12T20:00:54.206Z,100958.25
2022-10-12T20:05:57.128Z,100958.88
2022-10-12T20:11:01.150Z,100953.41
2022-10-12T20:16:03.808Z,100953.84
2022-10-12T20:21:06.886Z,100952.88
2022-10-12T20:26:11.733Z,100948.88
2022-10-12T20:31:14.534Z,100946.53
2022-10-12T20:36:21.241Z,100935.63
2022-10-12T20:41:25.685Z,100939.88
2022-10-12T20:46:28.761Z,100931.69
2022-10-12T20:51:32.836Z,100931.56
2022-10-12T20:56:36.973Z,100927.03
2022-10-12T21:01:39.790Z,100935.97
2022-10-12T21:06:42.649Z,100931.44
2022-10-12T21:11:46.728Z,100926.06
2022-10-12T21:16:49.534Z,100925.09
2022-10-12T21:21:52.332Z,100927.78
2022-10-12T21:26:56.447Z,100929.72
2022-10-12T21:31:59.290Z,100928.50
2022-10-12T21:37:01.909Z,100915.91
2022-10-12T21:42:06.049Z,100930.34
2022-10-12T21:47:08.646Z,100938.34
2022-10-12T21:52:11.376Z,100933.81
2022-10-12T21:57:15.503Z,100923.63
2022-10-12T22:02:18.267Z,100939.19
2022-10-12T22:07:21.324Z,100931.19
2022-10-12T22:12:25.285Z,100933.41
2022-10-12T22:17:27.933Z,100932.84
2022-10-12T22:22:30.582Z,100928.53
2022-10-12T22:27:34.525Z,100933.44
2022-10-12T22:32:37.219Z,100931.78
2022-10-12T22:37:39.835Z,100920.19
2022-10-12T22:42:43.832Z,100915.91
2022-10-12T22:47:46.524Z,100918.16
2022-10-12T22:52:49.231Z,100917.00
2022-10-12T22:57:53.321Z,100918.00
2022-10-12T23:02:55.961Z,100909.19
2022-10-12T23:07:58.693Z,100917.38
2022-10-12T23:18:05.224Z,100903.63
2022-10-12T23:23:07.936Z,100913.41
2022-10-12T23:28:16.838Z,100908.47
2022-10-12T23:33:19.517Z,100911.72
2022-10-12T23:38:22.135Z,100919.25
2022-10-12T23:43:28.018Z,100928.41
2022-10-12T23:48:30.863Z,100918.06
2022-10-12T23:53:33.529Z,100910.34
2022-10-12T23:58:37.563Z,100914.44
